Time;durP1;ratioP1;P1;durP2;ratioP2;P2;SDS_P1;SDS_P2;PMS_P1;PMS_P2;Temp;Humidity;BMP_temperature;BMP_pressure;BME280_temperature;BME280_humidity;BME280_pressure;Samples;Min_cycle;Max_cycle;Signal;HPM_P1;HPM_P2
2021/08/09 00:02:22;;;;;;;1.98;0.95;;;23.80;52.40;;;;;;5071783;28;20040;-58
2021/08/09 00:04:48;;;;;;;1.80;0.80;;;23.80;53.10;;;;;;5072906;28;20024;-58
2021/08/09 00:07:15;;;;;;;2.20;0.90;;;23.80;52.50;;;;;;5072494;28;20040;-58
2021/08/09 00:09:40;;;;;;;1.33;0.80;;;23.80;52.50;;;;;;5063162;28;20106;-58
2021/08/09 00:12:06;;;;;;;2.85;0.95;;;23.80;52.50;;;;;;5052389;28;20077;-58
2021/08/09 00:14:32;;;;;;;1.38;1.00;;;23.80;52.60;;;;;;5051732;28;20041;-59
2021/08/09 00:16:58;;;;;;;1.83;0.90;;;23.80;52.60;;;;;;5063132;28;20024;-58
2021/08/09 00:19:23;;;;;;;1.85;0.80;;;23.80;52.60;;;;;;5071758;28;20024;-59
2021/08/09 00:21:49;;;;;;;1.08;0.80;;;23.80;52.60;;;;;;5072590;28;20376;-58
2021/08/09 00:24:15;;;;;;;1.05;0.77;;;23.80;52.60;;;;;;5072027;28;20027;-60
2021/08/09 00:26:41;;;;;;;2.38;0.88;;;23.80;52.60;;;;;;5071514;28;20060;-58
2021/08/09 00:29:06;;;;;;;2.28;1.10;;;23.80;52.60;;;;;;5071975;28;20533;-58
2021/08/09 00:31:32;;;;;;;1.50;0.70;;;23.80;52.60;;;;;;5070076;28;20071;-58
2021/08/09 00:33:58;;;;;;;1.75;1.10;;;23.80;52.60;;;;;;5072665;28;20020;-59
2021/08/09 00:36:23;;;;;;;1.45;0.82;;;23.80;52.70;;;;;;5071395;28;20029;-59
2021/08/09 00:38:49;;;;;;;1.67;0.90;;;23.80;52.70;;;;;;5072166;28;20496;-58
2021/08/09 00:41:15;;;;;;;2.60;1.00;;;23.70;52.70;;;;;;5072084;28;20024;-58
2021/08/09 00:43:40;;;;;;;1.20;0.80;;;23.70;52.70;;;;;;5071296;28;20028;-59
2021/08/09 00:46:06;;;;;;;3.47;1.30;;;23.70;52.70;;;;;;5070665;28;20024;-58
2021/08/09 00:48:35;;;;;;;0.88;0.70;;;23.70;53.30;;;;;;5071218;28;20025;-58
2021/08/09 00:51:05;;;;;;;0.82;0.80;;;23.70;52.70;;;;;;5070639;28;20024;-59
2021/08/09 00:53:33;;;;;;;1.50;0.90;;;23.70;52.70;;;;;;5071314;28;20109;-58
2021/08/09 00:55:59;;;;;;;1.50;0.80;;;23.70;52.70;;;;;;5072166;28;20043;-58
2021/08/09 00:58:25;;;;;;;2.08;0.85;;;23.80;52.70;;;;;;5070906;28;20028;-59
2021/08/09 01:00:50;;;;;;;2.20;0.98;;;23.80;52.80;;;;;;5071377;28;20105;-59
2021/08/09 01:03:16;;;;;;;2.55;1.00;;;23.70;52.70;;;;;;5071805;28;20033;-60
2021/08/09 01:05:42;;;;;;;2.17;0.90;;;23.70;52.70;;;;;;5071261;28;20473;-59
2021/08/09 01:08:38;;;;;;;1.40;0.80;;;23.80;52.70;;;;;;5071747;28;20024;-58
2021/08/09 01:11:29;;;;;;;1.52;0.95;;;23.80;52.70;;;;;;5030728;28;20049;-59
2021/08/09 01:14:19;;;;;;;1.83;0.90;;;23.70;52.60;;;;;;5031749;28;20131;-58
2021/08/09 01:16:45;;;;;;;1.13;0.88;;;23.70;52.50;;;;;;5049266;28;20099;-58
2021/08/09 01:19:52;;;;;;;1.15;0.95;;;23.70;52.60;;;;;;5071734;28;20067;-59
2021/08/09 01:22:51;;;;;;;1.92;0.80;;;23.70;52.50;;;;;;5071414;28;20484;-61
2021/08/09 01:25:37;;;;;;;2.35;0.98;;;23.70;52.50;;;;;;5071540;28;20021;-59
2021/08/09 01:28:08;;;;;;;1.70;0.70;;;23.70;52.50;;;;;;5071680;28;20024;-59
2021/08/09 01:30:36;;;;;;;0.98;0.80;;;23.70;52.60;;;;;;5070659;28;20037;-59
2021/08/09 01:33:03;;;;;;;1.45;0.80;;;23.70;52.60;;;;;;5071459;28;20036;-58
2021/08/09 01:35:30;;;;;;;1.40;0.80;;;23.70;52.60;;;;;;5070849;28;20460;-59
2021/08/09 01:37:58;;;;;;;1.20;0.90;;;23.70;52.60;;;;;;5070627;28;20036;-58
2021/08/09 01:40:24;;;;;;;2.03;0.90;;;23.70;52.70;;;;;;5070573;28;20033;-60
2021/08/09 01:42:51;;;;;;;1.65;1.00;;;23.70;52.60;;;;;;5071537;28;20524;-58
2021/08/09 01:45:17;;;;;;;3.05;1.23;;;23.70;52.60;;;;;;5071355;28;20082;-58
2021/08/09 01:47:44;;;;;;;2.10;0.88;;;23.70;53.30;;;;;;5070698;28;20032;-59
2021/08/09 01:50:12;;;;;;;1.95;1.08;;;23.70;52.60;;;;;;5071303;28;20493;-59
2021/08/09 01:52:40;;;;;;;2.10;1.10;;;23.70;52.70;;;;;;5070452;28;20429;-59
2021/08/09 01:55:08;;;;;;;1.08;0.82;;;23.70;52.70;;;;;;5071226;28;20409;-58
2021/08/09 01:57:35;;;;;;;2.22;1.30;;;23.70;52.70;;;;;;5070522;28;20031;-58
2021/08/09 02:00:04;;;;;;;2.28;1.00;;;23.70;52.60;;;;;;5070838;28;20080;-58
2021/08/09 02:02:31;;;;;;;1.15;0.70;;;23.70;52.70;;;;;;5070209;28;20497;-58
2021/08/09 02:05:06;;;;;;;2.70;1.10;;;23.70;52.60;;;;;;5071042;28;20484;-59
2021/08/09 02:07:39;;;;;;;1.80;0.90;;;23.70;52.60;;;;;;5069283;28;20024;-59
2021/08/09 02:10:09;;;;;;;2.08;1.10;;;23.60;52.60;;;;;;5058869;28;20037;-58
2021/08/09 02:12:46;;;;;;;1.52;0.90;;;23.60;52.60;;;;;;5050314;28;20041;-58
2021/08/09 02:15:15;;;;;;;1.52;0.95;;;23.70;52.60;;;;;;5051081;28;20094;-58
2021/08/09 02:17:46;;;;;;;1.58;0.70;;;23.70;52.60;;;;;;5067679;28;20052;-58
2021/08/09 02:20:39;;;;;;;2.60;1.00;;;23.70;52.60;;;;;;5074923;28;20063;-59
2021/08/09 02:23:10;;;;;;;2.17;0.95;;;23.70;52.60;;;;;;5071059;28;20062;-58
2021/08/09 02:25:39;;;;;;;3.22;0.80;;;23.70;52.60;;;;;;5074049;28;20016;-58
2021/08/09 02:28:22;;;;;;;1.95;0.82;;;23.60;52.60;;;;;;5074678;28;20028;-58
2021/08/09 02:30:55;;;;;;;3.00;1.35;;;23.70;52.60;;;;;;5074537;28;20036;-58
2021/08/09 02:33:22;;;;;;;1.30;0.80;;;23.60;52.60;;;;;;5074329;28;20081;-61
2021/08/09 02:35:50;;;;;;;2.05;1.00;;;23.60;52.60;;;;;;5074212;28;20465;-58
2021/08/09 02:38:16;;;;;;;3.15;1.48;;;23.60;52.60;;;;;;5074490;28;20081;-58
2021/08/09 02:40:44;;;;;;;2.22;0.95;;;23.70;52.70;;;;;;5073541;28;20602;-58
2021/08/09 02:43:10;;;;;;;2.42;0.82;;;23.60;52.60;;;;;;5074481;28;20390;-58
2021/08/09 02:45:37;;;;;;;1.02;0.68;;;23.60;52.50;;;;;;5073506;28;20125;-58
2021/08/09 02:48:03;;;;;;;1.73;0.95;;;23.60;52.60;;;;;;5074092;28;20028;-58
2021/08/09 02:50:29;;;;;;;1.45;0.70;;;23.60;52.50;;;;;;5073825;28;20056;-58
2021/08/09 02:52:56;;;;;;;1.50;0.90;;;23.60;52.60;;;;;;5074210;28;20141;-58
2021/08/09 02:55:24;;;;;;;1.60;1.00;;;23.60;52.50;;;;;;5073941;28;20033;-62
2021/08/09 02:57:51;;;;;;;1.30;0.88;;;23.60;52.50;;;;;;5074124;28;20024;-58
2021/08/09 03:00:17;;;;;;;1.98;0.88;;;23.60;52.50;;;;;;5073739;28;20474;-58
2021/08/09 03:02:44;;;;;;;2.17;1.08;;;23.60;52.60;;;;;;5072846;28;20028;-58
2021/08/09 03:05:12;;;;;;;2.00;1.17;;;23.60;52.60;;;;;;5074163;28;20033;-58
2021/08/09 03:07:40;;;;;;;1.42;0.90;;;23.60;52.60;;;;;;5072864;28;20547;-57
2021/08/09 03:10:10;;;;;;;1.95;1.15;;;23.60;52.50;;;;;;5061194;28;20033;-58
2021/08/09 03:12:36;;;;;;;3.47;0.68;;;23.60;52.60;;;;;;5053023;28;20040;-57
2021/08/09 03:15:03;;;;;;;1.27;0.85;;;23.60;52.60;;;;;;5054220;28;20374;-58
2021/08/09 03:17:28;;;;;;;1.38;0.88;;;23.60;52.60;;;;;;5067128;28;20029;-58
2021/08/09 03:19:54;;;;;;;2.35;1.05;;;23.60;52.60;;;;;;5073861;28;20035;-58
2021/08/09 03:22:20;;;;;;;1.00;0.70;;;23.60;52.60;;;;;;5073681;28;20378;-58
2021/08/09 03:24:46;;;;;;;2.38;0.82;;;23.60;52.60;;;;;;5072674;28;20032;-58
2021/08/09 03:27:11;;;;;;;1.80;0.90;;;23.60;52.50;;;;;;5073840;28;20060;-58
2021/08/09 03:29:37;;;;;;;3.80;1.00;;;23.60;52.60;;;;;;5072267;28;20533;-58
2021/08/09 03:32:03;;;;;;;1.27;0.80;;;23.60;52.50;;;;;;5073286;28;20041;-58
2021/08/09 03:34:29;;;;;;;1.77;1.02;;;23.60;52.60;;;;;;5072275;28;20390;-59
2021/08/09 03:36:54;;;;;;;1.67;0.90;;;23.60;52.60;;;;;;5073492;28;20370;-58
2021/08/09 03:39:20;;;;;;;1.63;0.95;;;23.60;52.60;;;;;;5073313;28;20028;-58
2021/08/09 03:41:46;;;;;;;1.48;1.10;;;23.60;52.50;;;;;;5072534;28;20025;-57
2021/08/09 03:44:13;;;;;;;1.30;0.80;;;23.60;52.50;;;;;;5073293;28;20030;-57
2021/08/09 03:46:39;;;;;;;1.40;0.80;;;23.60;52.50;;;;;;5071937;28;20028;-56
2021/08/09 03:49:07;;;;;;;1.67;0.90;;;23.60;52.50;;;;;;5073114;28;20112;-57
2021/08/09 03:51:37;;;;;;;1.33;0.80;;;23.60;52.50;;;;;;5072103;28;20040;-56
2021/08/09 03:54:04;;;;;;;1.98;0.90;;;23.60;52.50;;;;;;5073271;28;20116;-56
2021/08/09 03:56:29;;;;;;;2.10;0.90;;;23.60;52.50;;;;;;5071855;28;20028;-56
2021/08/09 03:58:55;;;;;;;1.27;0.95;;;23.60;52.50;;;;;;5072756;28;20036;-57
2021/08/09 04:01:21;;;;;;;1.55;0.90;;;23.60;52.50;;;;;;5072905;28;20099;-58
2021/08/09 04:03:47;;;;;;;1.67;1.00;;;23.60;52.50;;;;;;5071981;28;20061;-57
2021/08/09 04:06:13;;;;;;;1.40;0.98;;;23.60;52.50;;;;;;5072776;28;20408;-58
2021/08/09 04:08:40;;;;;;;3.08;1.02;;;23.60;52.50;;;;;;5071559;28;20060;-57
2021/08/09 04:11:06;;;;;;;1.67;0.90;;;23.60;52.50;;;;;;5052636;28;20040;-57
2021/08/09 04:13:34;;;;;;;1.70;0.80;;;23.60;52.50;;;;;;5051946;28;20021;-58
2021/08/09 04:15:59;;;;;;;1.45;0.85;;;23.60;52.60;;;;;;5054904;28;20159;-58
2021/08/09 04:18:25;;;;;;;3.80;1.00;;;23.60;52.60;;;;;;5072011;28;20112;-61
2021/08/09 04:20:51;;;;;;;1.75;1.10;;;23.60;52.50;;;;;;5071970;28;20028;-58
2021/08/09 04:23:16;;;;;;;1.92;1.00;;;23.60;52.50;;;;;;5072258;28;20024;-59
2021/08/09 04:25:42;;;;;;;1.10;0.82;;;23.60;52.50;;;;;;5071193;28;20126;-59
2021/08/09 04:28:08;;;;;;;2.08;0.80;;;23.60;52.50;;;;;;5072349;28;20033;-58
2021/08/09 04:30:33;;;;;;;1.80;0.93;;;23.60;52.60;;;;;;5071694;28;20032;-57
2021/08/09 04:33:03;;;;;;;2.50;1.08;;;23.60;53.20;;;;;;5070605;28;20036;-58
2021/08/09 04:35:28;;;;;;;1.20;0.70;;;23.60;52.60;;;;;;5071311;28;20020;-60
2021/08/09 04:37:54;;;;;;;1.30;1.00;;;23.60;52.60;;;;;;5071992;28;20032;-58
2021/08/09 04:40:19;;;;;;;1.23;0.73;;;23.60;52.60;;;;;;5071863;28;20060;-55
2021/08/09 04:42:45;;;;;;;2.00;0.82;;;23.60;52.60;;;;;;5070467;28;20052;-58
2021/08/09 04:45:11;;;;;;;1.48;0.75;;;23.60;52.60;;;;;;5072133;28;20024;-58
2021/08/09 04:47:36;;;;;;;3.17;1.40;;;23.60;52.60;;;;;;5053767;28;20028;-59
2021/08/09 04:50:02;;;;;;;1.67;1.10;;;23.50;52.50;;;;;;5051434;28;20021;-58
2021/08/09 04:52:28;;;;;;;1.23;0.90;;;23.50;52.50;;;;;;5050510;28;20029;-61
2021/08/09 04:54:53;;;;;;;1.25;0.60;;;23.60;52.60;;;;;;5051278;28;20021;-58
2021/08/09 04:57:19;;;;;;;1.40;0.63;;;23.60;52.70;;;;;;5051472;28;20110;-58
2021/08/09 04:59:45;;;;;;;1.52;0.80;;;23.60;52.60;;;;;;5047719;28;20608;-59
2021/08/09 05:02:10;;;;;;;1.38;0.77;;;23.60;52.50;;;;;;5051462;28;20033;-59
2021/08/09 05:04:36;;;;;;;4.15;0.90;;;23.60;52.60;;;;;;5051427;28;20028;-53
2021/08/09 05:07:03;;;;;;;0.77;0.68;;;23.60;52.50;;;;;;5050820;28;20052;-58
2021/08/09 05:09:28;;;;;;;1.50;1.00;;;23.60;52.60;;;;;;5050720;28;20021;-61
2021/08/09 05:11:54;;;;;;;2.30;1.13;;;23.60;52.60;;;;;;5051071;28;20036;-58
2021/08/09 05:14:20;;;;;;;1.27;0.90;;;23.60;52.60;;;;;;5051253;28;20547;-58
2021/08/09 05:16:46;;;;;;;1.05;0.77;;;23.60;52.60;;;;;;5050449;28;20178;-58
2021/08/09 05:19:12;;;;;;;2.20;0.80;;;23.60;52.60;;;;;;5051242;28;20053;-58
2021/08/09 05:21:38;;;;;;;3.90;1.27;;;23.60;52.20;;;;;;5050426;28;20127;-58
2021/08/09 05:24:05;;;;;;;1.52;0.88;;;23.60;52.00;;;;;;5050530;28;20070;-58
2021/08/09 05:26:31;;;;;;;3.08;1.30;;;23.60;51.30;;;;;;5051164;28;20025;-58
2021/08/09 05:29:00;;;;;;;1.98;1.25;;;23.60;51.30;;;;;;5054419;28;20450;-59
2021/08/09 05:31:26;;;;;;;2.35;1.60;;;23.30;50.20;;;;;;5051366;28;20040;-58
2021/08/09 05:33:52;;;;;;;2.40;1.42;;;22.60;50.10;;;;;;5051091;28;20025;-58
2021/08/09 05:36:18;;;;;;;5.97;1.17;;;22.10;51.40;;;;;;5050832;28;20510;-58
2021/08/09 05:38:44;;;;;;;5.60;1.50;;;21.70;52.30;;;;;;5050870;28;20422;-54
2021/08/09 05:41:09;;;;;;;2.95;1.50;;;21.50;52.90;;;;;;5051138;28;20028;-58
2021/08/09 05:43:35;;;;;;;3.88;1.55;;;21.50;53.00;;;;;;5051446;28;20040;-52
2021/08/09 05:46:01;;;;;;;3.15;1.48;;;21.40;53.20;;;;;;5051792;28;20443;-55
2021/08/09 05:48:27;;;;;;;3.60;1.25;;;21.40;53.30;;;;;;5050838;28;20013;-59
2021/08/09 05:50:52;;;;;;;8.63;1.60;;;21.60;53.30;;;;;;5051334;28;20100;-58
2021/08/09 05:53:18;;;;;;;2.75;1.38;;;21.40;53.70;;;;;;5053070;28;20423;-58
2021/08/09 05:55:44;;;;;;;3.00;1.73;;;21.20;54.00;;;;;;5054534;28;20029;-58
2021/08/09 05:58:10;;;;;;;4.00;1.98;;;21.20;54.20;;;;;;5054996;28;20017;-54
2021/08/09 06:00:36;;;;;;;5.07;1.80;;;21.10;54.30;;;;;;5054270;28;20090;-49
2021/08/09 06:03:01;;;;;;;3.03;1.17;;;21.10;54.60;;;;;;5055808;28;20035;-56
2021/08/09 06:05:28;;;;;;;2.38;1.15;;;21.10;54.70;;;;;;5073657;28;20485;-59
2021/08/09 06:07:54;;;;;;;4.03;1.50;;;21.00;55.30;;;;;;5074384;28;20029;-55
2021/08/09 06:10:21;;;;;;;5.78;1.40;;;21.10;54.70;;;;;;5060425;28;20078;-56
2021/08/09 06:12:48;;;;;;;5.18;1.80;;;21.00;55.00;;;;;;5054049;28;20048;-53
2021/08/09 06:15:13;;;;;;;1.83;1.35;;;21.00;55.10;;;;;;5054861;28;20167;-50
2021/08/09 06:17:39;;;;;;;5.38;1.80;;;21.00;55.10;;;;;;5054357;28;20115;-57
2021/08/09 06:20:05;;;;;;;4.15;1.70;;;21.40;54.60;;;;;;5054971;28;20029;-58
2021/08/09 06:22:31;;;;;;;2.90;1.85;;;21.80;53.60;;;;;;5054357;28;20382;-56
2021/08/09 06:24:57;;;;;;;3.88;1.73;;;22.00;52.80;;;;;;5051402;28;20025;-57
2021/08/09 06:27:22;;;;;;;4.53;1.83;;;21.90;53.30;;;;;;5053617;28;20029;-57
2021/08/09 06:29:49;;;;;;;8.23;1.70;;;21.70;53.30;;;;;;5053746;28;20032;-58
2021/08/09 06:32:15;;;;;;;3.83;1.42;;;21.80;53.40;;;;;;5054782;28;20048;-58
2021/08/09 06:34:41;;;;;;;7.32;1.83;;;21.80;53.40;;;;;;5054539;28;20374;-58
2021/08/09 06:37:06;;;;;;;3.75;1.60;;;21.80;53.10;;;;;;5054789;28;20060;-58
2021/08/09 06:39:32;;;;;;;3.40;1.40;;;21.80;53.10;;;;;;5054099;28;20032;-56
2021/08/09 06:42:02;;;;;;;5.78;1.30;;;21.80;53.10;;;;;;5055175;28;20037;-56
2021/08/09 06:44:28;;;;;;;2.78;1.00;;;22.00;52.30;;;;;;5054890;28;20021;-55
2021/08/09 06:46:54;;;;;;;2.90;1.17;;;22.00;51.90;;;;;;5054826;28;20039;-58
2021/08/09 06:49:19;;;;;;;3.42;1.58;;;22.00;52.20;;;;;;5054769;28;20021;-55
2021/08/09 06:51:45;;;;;;;1.38;1.00;;;21.80;51.60;;;;;;5053870;28;20121;-53
2021/08/09 06:54:11;;;;;;;3.55;0.93;;;21.60;52.40;;;;;;5059959;28;20025;-58
2021/08/09 06:56:37;;;;;;;2.13;1.15;;;21.90;52.00;;;;;;5074041;28;20024;-55
2021/08/09 06:59:02;;;;;;;2.65;0.90;;;21.90;51.80;;;;;;5074673;28;20037;-57
2021/08/09 07:01:28;;;;;;;2.60;1.17;;;21.80;52.00;;;;;;5074702;28;20056;-55
2021/08/09 07:03:56;;;;;;;2.58;1.00;;;21.80;52.20;;;;;;5064678;28;20079;-55
2021/08/09 07:06:23;;;;;;;2.63;0.95;;;21.90;52.20;;;;;;5054158;28;20064;-56
2021/08/09 07:08:50;;;;;;;3.08;1.00;;;22.00;51.90;;;;;;5053691;28;20124;-56
2021/08/09 07:11:16;;;;;;;2.75;0.90;;;22.00;51.80;;;;;;5054458;28;20359;-55
2021/08/09 07:13:42;;;;;;;3.13;1.02;;;22.10;51.90;;;;;;5053698;28;20111;-53
2021/08/09 07:16:08;;;;;;;3.33;0.93;;;22.00;51.90;;;;;;5054352;28;20443;-55
2021/08/09 07:18:34;;;;;;;3.75;1.23;;;22.00;52.20;;;;;;5053439;28;20029;-56
2021/08/09 07:21:00;;;;;;;8.10;2.55;;;22.20;51.80;;;;;;5054349;28;20029;-56
2021/08/09 07:23:26;;;;;;;0.95;0.73;;;22.10;51.70;;;;;;5053955;28;20382;-53
2021/08/09 07:25:52;;;;;;;3.97;1.23;;;22.00;51.90;;;;;;5072931;28;20033;-53
2021/08/09 07:28:18;;;;;;;4.57;1.20;;;22.20;52.50;;;;;;5073925;28;20028;-53
2021/08/09 07:30:44;;;;;;;3.08;0.98;;;22.30;51.50;;;;;;5073182;28;20044;-57
2021/08/09 07:33:09;;;;;;;3.17;1.58;;;22.20;51.30;;;;;;5073581;28;20029;-56
2021/08/09 07:35:35;;;;;;;1.60;0.80;;;22.20;51.60;;;;;;5057296;28;20077;-56
2021/08/09 07:38:01;;;;;;;3.97;1.25;;;22.30;51.30;;;;;;5053670;28;20068;-51
2021/08/09 07:40:26;;;;;;;1.67;0.85;;;22.40;51.30;;;;;;5053661;28;20033;-51
2021/08/09 07:42:52;;;;;;;2.58;1.00;;;22.30;51.10;;;;;;5050149;28;20497;-53
2021/08/09 07:45:18;;;;;;;3.45;1.00;;;22.30;51.30;;;;;;5053971;28;20512;-55
2021/08/09 07:47:44;;;;;;;2.25;0.88;;;22.20;51.20;;;;;;5053723;28;20068;-51
2021/08/09 07:50:10;;;;;;;2.20;0.80;;;22.10;51.50;;;;;;5053752;28;20057;-53
2021/08/09 07:52:36;;;;;;;1.25;0.63;;;22.00;51.50;;;;;;5052852;28;20076;-53
2021/08/09 07:55:02;;;;;;;3.90;0.88;;;22.00;51.60;;;;;;5066380;28;20466;-55
2021/08/09 07:57:28;;;;;;;2.03;0.85;;;22.00;51.50;;;;;;5073623;28;20059;-55
2021/08/09 07:59:54;;;;;;;2.17;1.00;;;22.00;51.80;;;;;;5072592;28;20080;-56
2021/08/09 08:02:20;;;;;;;1.40;0.77;;;21.90;51.70;;;;;;5073425;28;20036;-53
2021/08/09 08:04:46;;;;;;;2.67;1.05;;;21.90;51.80;;;;;;5072810;28;20036;-51
2021/08/09 08:07:11;;;;;;;2.85;0.70;;;21.90;51.80;;;;;;5073399;28;20021;-58
2021/08/09 08:09:37;;;;;;;2.15;0.98;;;22.00;51.60;;;;;;5063762;28;20032;-58
2021/08/09 08:12:03;;;;;;;4.93;0.88;;;22.10;51.50;;;;;;5053321;28;20036;-57
2021/08/09 08:14:29;;;;;;;4.57;0.90;;;22.10;51.50;;;;;;5053305;28;20033;-55
2021/08/09 08:16:55;;;;;;;4.05;1.60;;;22.10;51.50;;;;;;5052540;28;20458;-53
2021/08/09 08:19:22;;;;;;;3.75;0.80;;;22.10;51.30;;;;;;5050540;28;20402;-54
2021/08/09 08:21:48;;;;;;;3.63;0.85;;;22.20;51.50;;;;;;5052445;28;20120;-56
2021/08/09 08:24:14;;;;;;;2.40;1.05;;;22.30;51.30;;;;;;5053363;28;20496;-53
2021/08/09 08:26:40;;;;;;;3.03;0.80;;;22.30;51.10;;;;;;5061523;28;20029;-56
2021/08/09 08:29:05;;;;;;;2.72;0.98;;;22.30;51.40;;;;;;5049545;28;20105;-57
2021/08/09 08:31:31;;;;;;;2.72;0.80;;;22.30;51.30;;;;;;5053441;28;20033;-55
2021/08/09 08:33:57;;;;;;;2.53;0.93;;;22.30;51.40;;;;;;5051874;28;20423;-54
2021/08/09 08:36:23;;;;;;;1.63;1.00;;;22.40;51.50;;;;;;5053066;28;20033;-56
2021/08/09 08:38:48;;;;;;;2.90;0.68;;;22.50;51.50;;;;;;5052132;28;20033;-56
2021/08/09 08:41:17;;;;;;;2.20;0.95;;;22.60;51.30;;;;;;5052500;28;20033;-55
2021/08/09 08:43:43;;;;;;;2.15;0.90;;;22.50;51.00;;;;;;5052071;28;20463;-56
2021/08/09 08:46:09;;;;;;;3.63;1.55;;;22.50;51.10;;;;;;5052786;28;20128;-55
2021/08/09 08:48:37;;;;;;;2.65;0.70;;;22.60;51.20;;;;;;5052386;28;20102;-55
2021/08/09 08:51:04;;;;;;;1.42;0.80;;;22.50;50.70;;;;;;5052487;28;20039;-54
2021/08/09 08:53:32;;;;;;;3.53;1.10;;;22.50;50.80;;;;;;5052384;28;20482;-57
2021/08/09 08:55:59;;;;;;;2.78;0.70;;;22.60;50.50;;;;;;5051962;28;20123;-57
2021/08/09 08:58:24;;;;;;;2.45;0.70;;;22.60;50.20;;;;;;5052337;28;20037;-55
2021/08/09 09:00:51;;;;;;;3.33;1.00;;;22.70;50.30;;;;;;5065744;28;20099;-57
2021/08/09 09:03:24;;;;;;;3.30;1.02;;;22.80;50.40;;;;;;5072401;28;20029;-57
2021/08/09 09:06:05;;;;;;;2.85;0.82;;;22.90;50.30;;;;;;5069800;28;20032;-55
2021/08/09 09:08:47;;;;;;;1.33;0.70;;;23.00;49.90;;;;;;5052446;28;20033;-54
2021/08/09 09:11:22;;;;;;;1.67;0.80;;;23.00;49.90;;;;;;5032645;28;20029;-56
2021/08/09 09:13:59;;;;;;;1.80;0.70;;;23.00;50.10;;;;;;5032063;28;20033;-57
2021/08/09 09:16:26;;;;;;;1.77;0.80;;;23.00;49.30;;;;;;5032224;28;20490;-56
2021/08/09 09:18:58;;;;;;;2.30;0.80;;;23.00;49.30;;;;;;5031784;28;20114;-55
2021/08/09 09:21:29;;;;;;;2.90;0.70;;;23.00;48.10;;;;;;5032441;28;20032;-55
2021/08/09 09:24:07;;;;;;;2.47;0.70;;;23.00;48.30;;;;;;5031656;28;20040;-56
2021/08/09 09:26:34;;;;;;;1.85;0.70;;;23.10;48.00;;;;;;5032044;28;20406;-57
2021/08/09 09:29:20;;;;;;;1.95;0.65;;;23.10;48.10;;;;;;5032056;28;20034;-56
2021/08/09 09:31:48;;;;;;;2.63;0.60;;;23.00;47.50;;;;;;5031410;28;20076;-57
2021/08/09 09:34:19;;;;;;;6.55;0.90;;;23.00;47.50;;;;;;5032277;28;20045;-56
2021/08/09 09:36:58;;;;;;;1.95;0.75;;;23.00;47.20;;;;;;5031775;28;20071;-56
2021/08/09 09:39:33;;;;;;;2.15;0.73;;;23.00;47.70;;;;;;5032048;28;20038;-57
2021/08/09 09:42:06;;;;;;;0.80;0.50;;;23.00;46.50;;;;;;5031690;28;20034;-56
2021/08/09 09:44:33;;;;;;;6.85;0.82;;;23.00;46.70;;;;;;5032008;28;20425;-55
2021/08/09 09:47:20;;;;;;;1.83;0.63;;;23.00;46.50;;;;;;5031617;28;20029;-56
2021/08/09 09:49:50;;;;;;;2.38;0.52;;;23.00;46.60;;;;;;5031389;28;20017;-56
2021/08/09 09:52:36;;;;;;;2.17;0.70;;;22.90;46.50;;;;;;5032163;28;20169;-57
2021/08/09 09:55:08;;;;;;;2.45;0.80;;;23.00;46.40;;;;;;5031961;28;20034;-56
2021/08/09 09:57:35;;;;;;;2.70;0.70;;;23.00;46.50;;;;;;5032292;28;20030;-56
2021/08/09 10:00:03;;;;;;;1.80;0.60;;;23.10;47.10;;;;;;5045961;28;20045;-55
2021/08/09 10:02:29;;;;;;;2.88;0.82;;;23.10;46.30;;;;;;5071876;28;20093;-57
2021/08/09 10:04:55;;;;;;;1.15;0.57;;;23.00;46.00;;;;;;5065019;28;20462;-56
2021/08/09 10:07:25;;;;;;;2.65;0.77;;;23.00;46.30;;;;;;5050489;28;20524;-56
2021/08/09 10:09:53;;;;;;;2.78;0.77;;;23.00;46.90;;;;;;5050675;28;20033;-56
2021/08/09 10:12:25;;;;;;;2.13;0.70;;;23.10;47.00;;;;;;5050314;28;20474;-56
2021/08/09 10:14:54;;;;;;;1.35;0.50;;;23.10;46.80;;;;;;5050681;28;20378;-56
2021/08/09 10:17:24;;;;;;;0.73;0.50;;;23.20;47.20;;;;;;5056276;28;20025;-56
2021/08/09 10:19:52;;;;;;;2.35;0.70;;;23.20;46.80;;;;;;5051254;28;20029;-56
2021/08/09 10:22:19;;;;;;;3.28;0.80;;;23.10;46.60;;;;;;5051730;28;20032;-57
2021/08/09 10:24:46;;;;;;;1.15;0.50;;;23.20;46.70;;;;;;5050725;28;20466;-57
2021/08/09 10:27:11;;;;;;;0.65;0.50;;;23.20;46.90;;;;;;5051585;28;20025;-57
2021/08/09 10:29:59;;;;;;;1.48;0.70;;;23.20;47.00;;;;;;5051110;28;20029;-59
2021/08/09 10:32:24;;;;;;;0.90;0.57;;;23.20;46.80;;;;;;5051290;28;20548;-56
2021/08/09 10:34:50;;;;;;;1.23;0.60;;;23.20;46.80;;;;;;5051322;28;20060;-57
2021/08/09 10:37:17;;;;;;;1.40;0.60;;;23.20;46.90;;;;;;5053576;28;20374;-55
2021/08/09 10:39:45;;;;;;;1.23;0.88;;;23.20;47.20;;;;;;5051311;28;20119;-57
2021/08/09 10:42:34;;;;;;;1.27;0.60;;;23.20;47.30;;;;;;5054905;28;20025;-57
2021/08/09 10:45:01;;;;;;;2.22;0.82;;;23.30;47.30;;;;;;5053654;28;20021;-57
2021/08/09 10:47:45;;;;;;;1.77;0.77;;;23.30;46.80;;;;;;5054775;28;20022;-56
2021/08/09 10:50:31;;;;;;;1.38;0.70;;;23.20;47.10;;;;;;5054460;28;20031;-55
2021/08/09 10:52:58;;;;;;;2.35;1.02;;;23.30;47.20;;;;;;5053722;28;20036;-55
2021/08/09 10:55:30;;;;;;;4.72;0.82;;;23.20;47.10;;;;;;5053702;28;20040;-59
2021/08/09 10:57:56;;;;;;;;;;;23.20;46.90;;;;;;5052607;28;20032;-57
2021/08/09 11:00:44;;;;;;;2.58;0.85;;;23.20;46.90;;;;;;5053882;28;19921;-56
2021/08/09 11:03:12;;;;;;;3.83;0.90;;;23.20;47.10;;;;;;5053648;28;20047;-56
2021/08/09 11:05:39;;;;;;;2.20;0.90;;;23.30;47.10;;;;;;5054200;28;20417;-56
2021/08/09 11:08:17;;;;;;;2.47;1.05;;;23.30;47.10;;;;;;5053462;28;20028;-58
2021/08/09 11:10:54;;;;;;;2.88;1.10;;;23.30;47.10;;;;;;5053056;28;20032;-59
2021/08/09 11:13:50;;;;;;;1.08;0.80;;;23.30;46.70;;;;;;5068369;28;20038;-55
2021/08/09 11:16:33;;;;;;;2.75;1.02;;;23.30;46.80;;;;;;5074069;28;20071;-56
2021/08/09 11:18:59;;;;;;;1.90;0.73;;;23.40;47.00;;;;;;5073364;28;20373;-57
2021/08/09 11:21:28;;;;;;;1.73;0.77;;;23.40;47.20;;;;;;5072985;28;20032;-57
2021/08/09 11:23:54;;;;;;;1.92;0.93;;;23.40;47.10;;;;;;5072431;28;20037;-57
2021/08/09 11:26:22;;;;;;;4.03;1.00;;;23.40;47.10;;;;;;5056407;28;20036;-56
2021/08/09 11:29:05;;;;;;;1.08;0.70;;;23.50;47.00;;;;;;5053249;28;20040;-57
2021/08/09 11:31:50;;;;;;;1.70;0.80;;;23.50;47.40;;;;;;5053847;28;20083;-56
2021/08/09 11:34:16;;;;;;;4.15;0.80;;;23.50;47.50;;;;;;5053798;28;20060;-55
2021/08/09 11:36:42;;;;;;;1.73;1.00;;;23.40;47.40;;;;;;5053230;28;20441;-59
2021/08/09 11:39:08;;;;;;;1.67;0.80;;;23.40;47.50;;;;;;5053111;28;20057;-56
2021/08/09 11:41:35;;;;;;;4.93;1.10;;;23.40;47.50;;;;;;5053318;28;20036;-59
2021/08/09 11:44:08;;;;;;;1.13;0.77;;;23.40;47.40;;;;;;5058712;28;20612;-57
2021/08/09 11:46:45;;;;;;;3.95;0.80;;;23.40;46.60;;;;;;5053222;28;20033;-56
2021/08/09 11:49:11;;;;;;;2.40;0.73;;;23.40;46.80;;;;;;5053465;28;20035;-57
2021/08/09 11:51:36;;;;;;;2.28;0.70;;;23.40;47.00;;;;;;5052438;28;20390;-56
2021/08/09 11:54:02;;;;;;;2.17;0.75;;;23.40;46.70;;;;;;5052639;28;20055;-56
2021/08/09 11:56:34;;;;;;;1.42;0.90;;;23.50;46.90;;;;;;5052875;28;20025;-55
2021/08/09 11:59:15;;;;;;;4.43;0.90;;;23.50;46.50;;;;;;5052208;28;20029;-56
2021/08/09 12:01:43;;;;;;;2.50;0.90;;;23.50;46.50;;;;;;5053087;28;20040;-59
2021/08/09 12:04:12;;;;;;;2.83;0.80;;;23.50;46.10;;;;;;5052984;28;20171;-56
2021/08/09 12:06:52;;;;;;;3.70;1.00;;;23.50;45.70;;;;;;5052872;28;20466;-56
2021/08/09 12:09:23;;;;;;;2.67;0.93;;;23.50;45.30;;;;;;5052915;28;20070;-55
2021/08/09 12:12:01;;;;;;;3.35;0.90;;;23.50;45.70;;;;;;5052281;28;20458;-55
2021/08/09 12:14:27;;;;;;;1.35;0.60;;;23.60;45.70;;;;;;5067813;28;20471;-56
2021/08/09 12:16:55;;;;;;;1.25;0.68;;;23.60;46.00;;;;;;5067181;28;20093;-57
2021/08/09 12:19:43;;;;;;;2.83;0.90;;;23.60;45.50;;;;;;5052985;28;20029;-57
2021/08/09 12:22:13;;;;;;;2.85;1.00;;;23.60;45.60;;;;;;5054923;28;20028;-56
2021/08/09 12:25:06;;;;;;;1.33;0.70;;;23.60;45.90;;;;;;5069735;28;20033;-57
2021/08/09 12:27:32;;;;;;;1.20;0.88;;;23.60;46.00;;;;;;5071178;28;20025;-56
2021/08/09 12:30:06;;;;;;;2.35;0.90;;;23.70;45.90;;;;;;5070910;28;20073;-55
2021/08/09 12:32:33;;;;;;;3.33;0.90;;;23.70;45.80;;;;;;5072490;28;20393;-57
2021/08/09 12:34:59;;;;;;;1.30;0.70;;;23.70;45.60;;;;;;5071750;28;20024;-57
2021/08/09 12:37:25;;;;;;;1.92;1.27;;;23.80;45.70;;;;;;5068778;28;20061;-59
2021/08/09 12:39:51;;;;;;;2.20;0.85;;;23.80;45.40;;;;;;5047749;28;20036;-57
2021/08/09 12:42:21;;;;;;;1.90;0.80;;;23.80;45.70;;;;;;5053510;28;20167;-54
2021/08/09 12:44:50;;;;;;;2.75;0.80;;;23.80;45.80;;;;;;5052581;28;20028;-55
2021/08/09 12:47:16;;;;;;;2.65;0.60;;;23.80;45.60;;;;;;5052513;28;20533;-56
2021/08/09 12:49:42;;;;;;;2.65;1.27;;;23.70;45.00;;;;;;5051932;28;20017;-57
2021/08/09 12:52:08;;;;;;;1.80;0.80;;;23.70;44.50;;;;;;5049568;28;20343;-57
2021/08/09 12:54:34;;;;;;;1.80;0.85;;;23.70;43.80;;;;;;5051842;28;20029;-56
2021/08/09 12:57:00;;;;;;;1.60;0.93;;;23.70;44.00;;;;;;5051760;28;20032;-56